Latest Weather Observations for Mareeba

IDQ60801

Issued at 11:35 am EST Wednesday 3 September 2014 (issued every 30 minutes, with the page automatically refreshed every 10 minutes)

About weather observations | Map of weather stations | Latest weather observations for QLD | Other Formats
Station Details ID: 031210 Name: MAREEBA AIRPORT Lat: -17.07 Lon: 145.43 Height: 471.93 m
Data from the previous 72 hours. | See also: Recent months at Mareeba
Date/Time
EST
Temp
°C
App
Temp
°C
Dew
Point
Rel
Hum
%
Delta-T
°C
Wind Press
QNH
hPa
Press
MSL
hPa
Rain
since 9 am
mm
Dir
 
Spd
km/h
Gust
km/h
Spd
kts
Gust
kts
03/11:30am 26.5 23.3 4.9 25 11.2 E 11 19 6 10 1016.0 - 0.0
03/11:00am 26.0 21.2 4.5 25 11.1 SSE 19 26 10 14 1016.4 - 0.0
03/10:30am 25.8 19.7 4.9 26 10.8 SE 26 35 14 19 1016.8 - 0.0
03/10:00am 24.7 18.5 6.0 30 9.8 SE 28 39 15 21 1016.8 - 0.0
03/09:30am 23.5 17.7 8.0 37 8.4 SE 28 39 15 21 1017.1 - 0.0
03/09:00am 22.3 16.9 6.5 36 8.2 SE 24 33 13 18 1017.3 1015.2 0.0
03/08:30am 20.5 17.1 7.8 44 6.7 SE 15 20 8 11 1017.3 - 0.0
03/08:00am 18.4 16.8 8.9 54 5.1 ESE 7 11 4 6 1017.3 - 0.0
03/07:30am 16.3 13.9 8.8 61 3.9 S 11 20 6 11 1017.2 - 0.0
03/07:00am 13.6 10.8 8.4 71 2.7 S 13 15 7 8 1016.9 - 0.0
03/06:30am 12.3 9.4 8.0 75 2.2 S 13 17 7 9 1016.4 - 0.0
03/06:00am 12.6 9.5 8.7 77 2.0 S 15 19 8 10 1016.1 1013.9 0.0
03/05:30am 12.3 9.3 9.3 82 1.6 S 15 17 8 9 1016.1 - 0.0
03/05:00am 11.9 9.7 9.3 84 1.3 S 11 13 6 7 1016.0 - 0.0
03/04:30am 12.4 11.1 9.8 84 1.4 SE 7 9 4 5 1016.0 - 0.0
03/04:00am 12.0 10.8 9.6 85 1.2 SSE 6 9 3 5 1015.9 - 0.0
03/03:30am 12.9 11.8 10.6 86 1.2 SSE 7 11 4 6 1016.2 - 0.0
03/03:00am 12.7 11.6 10.6 87 1.1 SSE 7 11 4 6 1016.4 1014.2 0.0
03/02:30am 12.6 12.0 10.5 87 1.1 SE 4 7 2 4 1016.6 - 0.0
03/02:00am 13.0 12.0 10.9 87 1.1 SE 7 9 4 5 1016.9 - 0.0
03/01:30am 12.9 11.5 10.8 87 1.1 SSE 9 11 5 6 1017.1 - 0.0
03/01:00am 12.9 11.8 10.8 87 1.1 SE 7 11 4 6 1017.3 - 0.0
03/12:30am 13.0 12.2 11.1 88 1.0 SE 6 7 3 4 1017.6 - 0.0
03/12:00am 12.8 11.7 10.7 87 1.1 SSE 7 9 4 5 1017.7 1015.5 0.0
 
Date/Time
EST
Temp
°C
App
Temp
°C
Dew
Point
Rel
Hum
%
Delta-T
°C
Wind Press
QNH
hPa
Press
MSL
hPa
Rain
since 9 am
mm
Dir
 
Spd
km/h
Gust
km/h
Spd
kts
Gust
kts
02/11:30pm 13.3 12.3 11.0 86 1.2 SE 7 11 4 6 1017.7 - 0.0
02/11:00pm 12.9 12.4 10.6 86 1.2 SSE 4 9 2 5 1017.8 - 0.0
02/10:30pm 13.1 12.6 10.6 85 1.3 SW 4 9 2 5 1017.8 - 0.0
02/10:00pm 13.5 13.7 10.7 83 1.5 CALM 0 0 0 0 1017.9 - 0.0
02/09:30pm 13.7 13.8 10.3 80 1.8 CALM 0 0 0 0 1018.0 - 0.0
02/09:00pm 14.7 15.1 11.1 79 2.0 CALM 0 0 0 0 1017.8 1015.6 0.0
02/08:30pm 15.6 16.0 11.2 75 2.4 CALM 0 0 0 0 1017.6 - 0.0
02/08:00pm 16.3 16.4 11.5 73 2.7 W 2 6 1 3 1017.2 - 0.0
02/07:30pm 16.8 16.1 11.3 70 3.0 W 6 7 3 4 1016.9 - 0.0
02/07:00pm 18.9 18.4 11.9 64 4.0 N 6 7 3 4 1016.6 - 0.0
02/06:30pm 20.3 20.1 11.8 58 4.8 N 4 7 2 4 1016.3 - 0.0
02/06:00pm 21.8 20.7 11.8 53 5.7 NNE 9 13 5 7 1015.9 1013.7 0.0
02/05:30pm 23.0 21.9 12.0 50 6.4 NNE 9 15 5 8 1015.8 - 0.0
02/05:00pm 23.7 21.8 11.7 47 6.9 NNE 13 20 7 11 1015.6 - 0.0
02/04:30pm 24.5 22.3 12.1 46 7.2 NNE 15 24 8 13 1015.1 - 0.0
02/04:00pm 25.6 23.1 12.4 43 7.8 NNE 17 24 9 13 1015.0 - 0.0
02/03:30pm 26.0 23.1 11.0 39 8.6 NNE 17 26 9 14 1014.8 - 0.0
02/03:00pm 26.9 24.9 10.2 35 9.5 ENE 11 22 6 12 1015.0 1012.8 0.0
02/02:30pm 28.7 24.6 4.2 21 12.8 ESE 15 24 8 13 1015.4 - 0.0
02/02:00pm 28.7 24.4 3.5 20 13.0 SE 15 28 8 15 1015.5 - 0.0
02/01:30pm 28.2 23.0 2.4 19 13.0 ESE 19 28 10 15 1015.8 - 0.0
02/01:00pm 28.2 22.9 3.1 20 12.8 ESE 20 30 11 16 1016.3 - 0.0
02/12:30pm 27.3 22.3 3.7 22 12.1 ESE 19 32 10 17 1016.8 - 0.0
02/12:00pm 26.6 21.8 4.4 24 11.4 E 19 28 10 15 1017.4 1015.3 0.0
02/11:30am 26.2 21.2 3.4 23 11.5 SSE 19 28 10 15 1018.2 - 0.0
02/11:00am 25.2 20.7 5.9 29 10.1 SSE 19 30 10 16 1018.6 - 0.0
02/10:30am 23.4 21.2 7.9 37 8.3 N 9 15 5 8 1019.0 - 0.0
02/10:00am 23.1 20.1 6.0 33 8.9 E 11 15 6 8 1019.4 - 0.0
02/09:30am 21.7 18.9 6.8 38 7.8 SE 11 19 6 10 1019.6 - 0.0
02/09:00am 20.3 16.5 7.7 44 6.6 SE 17 24 9 13 1019.7 1017.6 0.0
02/08:30am 18.7 14.9 9.8 56 4.8 SE 20 28 11 15 1019.5 - 0.0
02/08:00am 16.7 14.1 10.8 68 3.2 SE 15 20 8 11 1019.2 - 0.0
02/07:30am 14.9 13.6 11.1 78 2.1 SE 9 13 5 7 1018.8 - 0.0
02/07:00am 12.9 11.4 10.6 86 1.2 SSE 9 11 5 6 1018.8 - 0.0
02/06:30am 12.5 10.5 10.2 86 1.2 SE 11 13 6 7 1018.8 - 0.0
02/06:00am 12.8 10.6 10.7 87 1.1 SSE 13 15 7 8 1018.7 1016.5 0.0
02/05:30am 12.6 10.6 10.3 86 1.2 SSE 11 17 6 9 1018.5 - 0.0
02/05:00am 12.0 10.3 9.9 87 1.1 SSE 9 11 5 6 1018.4 - 0.0
02/04:30am 12.1 10.4 10.0 87 1.1 SSE 9 13 5 7 1018.4 - 0.0
02/04:00am 12.6 10.3 10.3 86 1.2 SE 13 19 7 10 1018.3 - 0.0
02/03:30am 12.2 10.2 10.1 87 1.1 SE 11 13 6 7 1018.3 - 0.0
02/03:00am 12.7 10.4 10.4 86 1.2 SSE 13 15 7 8 1018.7 1016.5 0.0
02/02:30am 12.6 10.3 10.3 86 1.2 SE 13 17 7 9 1019.0 - 0.0
02/02:00am 12.1 10.8 9.8 86 1.2 SE 7 9 4 5 1019.1 - 0.0
02/01:30am 13.0 11.0 10.2 83 1.5 SE 11 15 6 8 1019.1 - 0.0
02/01:00am 13.3 11.5 10.7 84 1.4 SE 11 13 6 7 1019.0 - 0.0
02/12:30am 13.5 11.6 10.5 82 1.6 SE 11 13 6 7 1019.4 - 0.0
02/12:00am 14.1 12.6 10.5 79 1.9 SE 9 11 5 6 1019.4 1017.3 0.0
 
Date/Time
EST
Temp
°C
App
Temp
°C
Dew
Point
Rel
Hum
%
Delta-T
°C
Wind Press
QNH
hPa
Press
MSL
hPa
Rain
since 9 am
mm
Dir
 
Spd
km/h
Gust
km/h
Spd
kts
Gust
kts
01/11:30pm 14.6 12.5 11.2 80 1.9 SE 13 17 7 9 1019.4 - 0.0
01/11:00pm 14.5 12.3 10.7 78 2.1 SE 13 17 7 9 1019.5 - 0.0
01/10:30pm 15.1 12.6 11.1 77 2.2 SSE 15 19 8 10 1019.4 - 0.0
01/10:00pm 15.2 13.1 11.0 76 2.3 SE 13 19 7 10 1019.4 - 0.0
01/09:30pm 15.5 13.3 10.9 74 2.5 SSE 13 19 7 10 1019.5 - 0.0
01/09:00pm 15.8 13.6 10.8 72 2.7 SSE 13 19 7 10 1019.3 1017.2 0.0
01/08:30pm 16.4 13.8 10.7 69 3.1 SSE 15 19 8 10 1018.9 - 0.0
01/08:00pm 17.2 15.0 10.8 66 3.5 SE 13 22 7 12 1018.7 - 0.0
01/07:30pm 17.7 15.7 10.3 62 4.0 SSE 11 17 6 9 1018.2 - 0.0
01/07:00pm 18.6 15.2 10.4 59 4.5 SE 19 28 10 15 1018.0 - 0.0
01/06:30pm 19.7 17.5 10.7 56 5.0 E 13 17 7 9 1017.4 - 0.0
01/06:00pm 21.0 18.2 11.3 54 5.5 SE 17 22 9 12 1017.0 1014.8 0.0
01/05:30pm 21.7 20.5 11.7 53 5.7 ENE 9 17 5 9 1016.5 - 0.0
01/05:00pm 22.0 20.0 11.4 51 6.0 NE 13 20 7 11 1016.0 - 0.0
01/04:30pm 22.9 20.4 12.2 51 6.2 NNE 17 24 9 13 1015.9 - 0.0
01/04:00pm 23.9 21.7 12.2 48 6.8 NNE 15 24 8 13 1015.6 - 0.0
01/03:30pm 24.6 23.6 12.2 46 7.2 NE 9 22 5 12 1015.2 - 0.0
01/03:00pm 26.1 24.4 9.9 36 9.2 S 9 17 5 9 1015.2 1013.0 0.0
01/02:30pm 25.9 22.3 9.7 36 9.1 SE 19 26 10 14 1015.5 - 0.0
01/02:00pm 26.0 23.1 9.8 36 9.1 SSE 15 26 8 14 1015.9 - 0.0
01/01:30pm 26.1 24.7 9.4 35 9.4 S 7 19 4 10 1016.6 - 0.0
01/01:00pm 25.1 22.0 9.0 36 8.9 SSE 15 26 8 14 1017.0 - 0.0
01/12:30pm 24.4 20.9 8.8 37 8.6 SSE 17 28 9 15 1017.7 - 0.0
01/12:00pm 25.2 22.2 9.1 36 8.9 S 15 24 8 13 1018.2 1016.0 0.0
01/11:30am 24.0 21.5 11.0 44 7.4 S 15 24 8 13 1018.7 - 0.0
01/11:00am 23.4 21.8 11.5 47 6.8 E 11 20 6 11 1019.3 - 0.0
01/10:30am 21.7 19.7 11.4 52 5.9 SSE 13 20 7 11 1019.7 - 0.0
01/10:00am 21.1 19.2 11.7 55 5.4 ESE 13 22 7 12 1019.9 - 0.0
01/09:30am 20.6 17.4 11.2 55 5.3 SSE 19 28 10 15 1020.2 - 0.0
01/09:00am 19.2 15.9 11.0 59 4.6 SE 19 26 10 14 1020.0 1017.8 0.0
01/08:30am 17.5 14.6 10.9 65 3.6 SE 17 24 9 13 1019.4 - 0.0
01/08:00am 16.1 13.0 10.4 69 3.1 SE 17 24 9 13 1019.0 - 0.0
01/07:30am 14.9 11.9 10.5 75 2.4 SE 17 20 9 11 1018.8 - 0.0
01/07:00am 13.6 10.6 10.8 83 1.5 SE 17 22 9 12 1018.4 - 0.0
01/06:30am 13.1 10.2 11.0 87 1.1 SSE 17 22 9 12 1018.3 - 0.0
01/06:00am 13.4 10.6 11.5 88 1.0 SSE 17 24 9 13 1018.0 1015.8 0.0
01/05:30am 13.1 11.3 11.0 87 1.1 SE 11 15 6 8 1017.9 - 0.0
01/05:00am 13.8 11.4 11.5 86 1.3 SSE 15 19 8 10 1017.7 - 0.0
01/04:30am 13.6 10.8 11.5 87 1.1 S 17 22 9 12 1017.6 - 0.0
01/04:00am 13.5 11.9 11.4 87 1.1 SSE 11 15 6 8 1017.2 - 0.0
01/03:30am 14.4 12.6 12.1 86 1.3 SE 13 19 7 10 1017.2 - 0.0
01/03:00am 14.4 11.4 11.9 85 1.4 SSE 19 28 10 15 1017.1 1014.9 0.0
01/02:30am 14.6 11.5 12.1 85 1.4 SSE 20 26 11 14 1017.4 - 0.0
01/02:00am 14.6 11.1 12.1 85 1.4 SSE 22 28 12 15 1017.9 - 0.0
01/01:30am 14.4 10.8 11.9 85 1.4 SSE 22 28 12 15 1018.0 - 0.0
01/01:00am 14.4 11.4 11.9 85 1.4 SSE 19 24 10 13 1018.2 - 0.0
01/12:30am 14.8 11.6 11.9 83 1.6 SSE 20 26 11 14 1018.4 - 0.0
01/12:00am 14.8 11.6 11.9 83 1.6 SSE 20 26 11 14 1018.4 1016.2 0.0
 
Date/Time
EST
Temp
°C
App
Temp
°C
Dew
Point
Rel
Hum
%
Delta-T
°C
Wind Press
QNH
hPa
Press
MSL
hPa
Rain
since 9 am
mm
Dir
 
Spd
km/h
Gust
km/h
Spd
kts
Gust
kts
31/11:30pm 15.1 12.0 12.1 82 1.7 SSE 20 26 11 14 1018.7 - 0.0
31/11:00pm 15.1 12.0 12.1 82 1.7 SSE 20 28 11 15 1018.7 - 0.0
31/10:30pm 15.3 12.2 12.1 81 1.8 SSE 20 26 11 14 1018.5 - 0.0
31/10:00pm 15.4 12.4 12.0 80 1.9 S 19 26 10 14 1018.6 - 0.0
31/09:30pm 15.6 12.6 11.8 78 2.1 SSE 19 24 10 13 1018.4 - 0.0
31/09:00pm 16.0 13.8 12.2 78 2.1 SSE 15 20 8 11 1018.3 1016.4 0.0
31/08:30pm 16.5 14.3 12.1 75 2.5 SSE 15 20 8 11 1018.1 - 0.0
31/08:00pm 16.9 15.3 11.6 71 2.9 SSE 11 15 6 8 1017.8 - 0.0
31/07:30pm 17.5 14.7 11.3 67 3.4 SE 17 24 9 13 1017.1 - 0.0
31/07:00pm 18.2 15.0 11.3 64 3.8 SE 19 26 10 14 1016.9 - 0.0
31/06:30pm 19.2 15.3 10.7 58 4.7 SE 22 28 12 15 1016.4 - 0.0
31/06:00pm 20.3 16.9 10.4 53 5.5 SE 19 30 10 16 1015.9 1014.0 0.0
31/05:30pm 21.1 17.6 10.9 52 5.7 SE 20 28 11 15 1015.5 - 0.0
31/05:00pm 22.5 19.9 10.6 47 6.7 SE 15 20 8 11 1015.0 - 0.0
31/04:30pm 23.7 20.9 11.4 46 7.1 NE 17 28 9 15 1014.7 - 0.0
31/04:00pm 23.5 21.6 11.9 48 6.7 NNE 13 24 7 13 1014.4 - 0.0
31/03:30pm 25.2 21.3 9.5 37 8.8 SSE 20 24 11 13 1014.1 - 0.0
31/03:00pm 25.3 22.4 9.6 37 8.8 ESE 15 26 8 14 1014.2 1012.3 0.0
31/02:30pm 25.6 23.3 9.0 35 9.2 E 11 20 6 11 1014.4 - 0.0
31/02:00pm 25.3 22.7 9.2 36 9.0 SE 13 22 7 12 1014.8 - 0.0
31/01:30pm 25.3 22.3 9.2 36 9.0 ESE 15 26 8 14 1015.4 - 0.0
31/01:00pm 25.3 22.7 9.2 36 9.0 SE 13 24 7 13 1015.8 - 0.0
31/12:30pm 24.5 21.9 9.3 38 8.4 SE 13 24 7 13 1016.4 - 0.0
31/12:00pm 23.6 21.0 9.2 40 7.9 SE 13 24 7 13 1017.1 1015.2 0.0

Other Formats:

Comma delimited format used in spreadsheet applications
http://www.bom.gov.au/fwo/IDQ60801/IDQ60801.95286.axf

JavaScript Object Notation format (JSON) in row-major order
http://www.bom.gov.au/fwo/IDQ60801/IDQ60801.95286.json